Pagina principale
METAR-TAF:

METAR-TAF

Aeroporti :

Antananarivo, Madagascar

Aeroporto di Antananarivo-Ivato

latitudine: 18-48S, longitudine: 047-29E, altezza: 1279 m

Osservazione

Il bollettino è stato emesso 35 minuti fa, alle 04:30 UTC
Vento 3 kt da direzioni variabili
Temperature 21°C
Umidità 83%
Pressione 1020 hPa
Visibilità 10 km o più
Nubi sparse ad un'altezza di 2000 ft

METAR: FMMI 180430Z VRB03KT 9999 SCT020 21/18 Q1020 NOSIG

Ora: 08:05 (05:05 UTC)

Previsione

Il bollettino è stato emesso 6 ore e 5 minuti fa, alle 23:00 UTC
Previsione valida dal 18 alle 00 UTC al 19 alle 06 UTC
Vento 5 kt da direzioni variabili
Visibilità 10 km o più
Nubi sparse ad un'altezza di 1700 ft, Cumulonembo.
Nuvoloso ad un'altezza di 2000 ft
Temporaneamente
dal 18 alle 11 UTC al 18 alle 23 UTC
Visibilità: 4000 m
temporale, pioggia

TAF: FMMI 172300Z 1800/1906 VRB05KT 9999 SCT017CB BKN020 TEMPO 1811/1823 4000 TSRA

Osservazioni e previsioni meteorologiche di più di 4000 aeroporti (messaggi METAR e TAF).

Le stazioni disponibili sono rappresentate dai dischi gialli e rossi sulla carta.

Puntare il mouse per vedere il nome della stazione.

Clicca sopra per visualizzare le osservazioni e previsioni meteorologiche.

Per cambiare la mappa : fare clic sui pulsanti verdi con una croce nera per ingrandire, il pulsante verde con un trattino per diminuire, o sulla freccia verde per le mappe adiacenti.


METAR-TAF: